Nnamdi Azikiwe International Airport
DNAA : now visible

Aeroporto :











RITROVATECI SU...

 
LOGIN :

Iscrizione | Disclaimer

   EN    FR    IT 

 









Sommario :    VFR   VFR Marginale   IFR   IFR Intensivo   IFR Molto Intensivo
Visibilità : 
Base nubi : 
>= 8 km
>= 3000ft
5 / 8 km
1000 / 3000 ft
1500m / 5 km
500 / 1000 ft
800 / 1500m
200 / 500 ft
< 800m
< 200 ft
Simboli :   Temporali  Nebbia  Neve Forte  Precipitazioni Forti  Vento > 20 kt







- Altitudine del aeroporto : 1123 ft
- Codice IATA : ABV


DNAA - Nnamdi Azikiwe International

ULTIMO METAR :
  • 230300Z 18004KT CAVOK 28/20 Q1010 NOSIG

METARs OBSOLETI :
  • 230200Z 20005KT CAVOK 27/20 Q1010 NOSIG

TAF TAF DNAA
Valido dal 23 a 00 ore il 24 a 06 ore UTC


222150Z 2300/2406 17007KT CAVOK
BECMG 2309/2312 23010KT BKN011
TEMPO 2314/2319 TS SCT013 FEW021CB
FIR DNKK / Africa



MetMap, La meteo Aeronautica in un colpo d'occhio ! - Copyright ORBIFLY Dicembre 2007 - Disclaimer

ORBIFLY MET'MAP TEAM :

Programmazione e sviluppo : Alexandra Zaïnal
Concezione e sviluppo : Baudouin d'Aumeries
Co-Programmazione e sviluppo : Marc-Olivier Méhu
Supporto tecnico e logistico : Manuel Goepfert
Aiuto per la traduzione : Arnaldo La Scala

Contatto : metmap@orbifly.com




FONTI E CREDITI :

   NOAA       Earth
Advisory